Time;durP1;ratioP1;P1;durP2;ratioP2;P2;SDS_P1;SDS_P2;PMS_P1;PMS_P2;Temp;Humidity;BMP_temperature;BMP_pressure;BME280_temperature;BME280_humidity;BME280_pressure;Samples;Min_cycle;Max_cycle;Signal;HPM_P1;HPM_P2
2023/12/03 07:33:15;;;;;;;24.50;10.80;;;;;;;-2.03;100.00;100689.55;216710;1287;96636;-77
2023/12/03 07:39:08;;;;;;;;;;;;;;;;;;;;;
2023/12/03 07:51:12;;;;;;;30.10;11.90;;;;;;;-2.09;100.00;100709.13;211383;1295;140933;-78
2023/12/03 07:57:16;;;;;;;28.40;11.20;;;;;;;-2.14;100.00;100711.27;211673;1295;141480;-77
2023/12/03 08:03:17;;;;;;;27.30;10.70;;;;;;;-2.12;100.00;100715.91;211938;1290;139779;-78
2023/12/03 08:09:19;;;;;;;29.00;11.70;;;;;;;-2.11;100.00;100722.36;211348;1295;141224;-78
2023/12/03 08:15:17;;;;;;;32.00;12.00;;;;;;;-2.11;100.00;100723.39;211912;1295;139381;-78
2023/12/03 08:26:56;;;;;;;;;;;;;;;;;;;;;
2023/12/03 08:32:57;;;;;;;;;;;;;;;;;;;;;
2023/12/03 08:45:00;;;;;;;27.80;10.60;;;;;;;-2.26;100.00;100754.34;211887;1295;139652;-77
2023/12/03 08:50:34;;;;;;;29.10;11.70;;;;;;;-2.26;100.00;100752.34;214959;1290;141414;-78
2023/12/03 08:56:26;;;;;;;24.10;9.40;;;;;;;-2.26;100.00;100762.95;214752;1290;141013;-78
2023/12/03 09:02:22;;;;;;;;;;;;;;;;;;;;;
2023/12/03 09:08:26;;;;;;;23.90;10.20;;;;;;;-2.13;100.00;100786.55;212456;1294;142404;-78
2023/12/03 09:14:27;;;;;;;29.40;10.60;;;;;;;-1.99;100.00;100791.96;212094;1295;140252;-78
2023/12/03 09:20:34;;;;;;;25.50;10.00;;;;;;;-1.84;100.00;100799.80;212110;1291;141048;-77
2023/12/03 09:26:35;;;;;;;28.90;12.70;;;;;;;-1.72;100.00;100799.94;211683;1297;140934;-77
2023/12/03 09:38:27;;;;;;;22.40;9.40;;;;;;;-1.72;100.00;100789.95;211681;1292;141020;-78
2023/12/03 09:50:31;;;;;;;24.60;10.50;;;;;;;-1.78;100.00;100788.23;213109;1292;141656;-78
2023/12/03 09:56:30;;;;;;;25.00;11.20;;;;;;;-1.78;100.00;100789.70;211405;1295;140998;-79
2023/12/03 10:02:23;;;;;;;;;;;;;;;;;;;;;
2023/12/03 10:08:25;;;;;;;24.10;11.60;;;;;;;-1.76;100.00;100795.17;212985;1292;140934;-79
2023/12/03 10:14:05;;;;;;;;;;;;;;;;;;;;;
2023/12/03 10:20:15;;;;;;;;;;;;;;;;;;;;;
2023/12/03 10:26:36;;;;;;;24.70;10.30;;;;;;;-1.77;100.00;100813.64;211962;1295;140493;-76
2023/12/03 10:32:40;;;;;;;26.70;11.00;;;;;;;-1.72;100.00;100810.19;210686;1303;140227;-76
2023/12/03 10:38:33;;;;;;;;;;;;;;;;;;;;;
2023/12/03 10:50:47;;;;;;;24.30;11.20;;;;;;;-1.50;100.00;100822.23;211260;1296;141236;-76
2023/12/03 10:56:49;;;;;;;;;;;;;;;;;;;;;
2023/12/03 11:02:38;;;;;;;23.80;11.70;;;;;;;-1.39;100.00;100816.59;211849;1293;140096;-76
2023/12/03 11:08:40;;;;;;;22.10;10.50;;;;;;;-1.35;100.00;100822.21;211214;1294;141512;-77
2023/12/03 11:14:35;;;;;;;20.50;10.20;;;;;;;-1.31;100.00;100830.47;211729;1293;140055;-77
2023/12/03 11:20:48;;;;;;;;;;;;;;;;;;;;;
2023/12/03 11:26:54;;;;;;;22.10;9.50;;;;;;;-1.27;100.00;100836.14;213222;1293;140558;-76
2023/12/03 11:32:54;;;;;;;;;;;;;;;;;;;;;
2023/12/03 11:39:02;;;;;;;18.70;9.00;;;;;;;-1.28;100.00;100847.45;214678;1290;140069;-77
2023/12/03 11:45:07;;;;;;;14.90;7.20;;;;;;;-1.23;100.00;100850.89;212322;1291;139869;-75
2023/12/03 11:50:57;;;;;;;;;;;;;;;;;;;;;
2023/12/03 11:56:59;;;;;;;18.70;9.70;;;;;;;-1.17;100.00;100852.98;211682;1295;140896;-76
2023/12/03 12:03:02;;;;;;;22.90;9.90;;;;;;;-1.13;100.00;100847.97;213566;1290;139842;-77
2023/12/03 12:08:51;;;;;;;16.80;8.80;;;;;;;-1.11;100.00;100854.36;214050;1295;140547;-76
2023/12/03 12:14:46;;;;;;;23.20;9.70;;;;;;;-1.12;100.00;100853.19;212342;1291;140016;-76
2023/12/03 12:20:45;;;;;;;;;;;;;;;;;;;;;
2023/12/03 12:26:30;;;;;;;22.10;9.40;;;;;;;-1.16;100.00;100850.80;217273;1290;140654;-77
2023/12/03 12:32:32;;;;;;;19.50;8.90;;;;;;;-1.18;100.00;100855.21;217717;1290;139211;-77
2023/12/03 12:38:42;;;;;;;23.20;9.50;;;;;;;-1.12;100.00;100866.48;213849;1290;140851;-77
2023/12/03 12:44:57;;;;;;;23.60;9.60;;;;;;;-1.06;100.00;100866.17;212594;1291;139367;-76
2023/12/03 12:50:56;;;;;;;21.20;9.60;;;;;;;-1.00;100.00;100871.40;212511;1292;141131;-77
2023/12/03 13:02:59;;;;;;;21.60;9.30;;;;;;;-0.89;100.00;100883.23;211883;1295;139394;-75
2023/12/03 13:09:01;;;;;;;20.20;9.00;;;;;;;-0.91;100.00;100880.47;212673;1291;141438;-76
2023/12/03 13:15:13;;;;;;;;;;;;;;;;;;;;;
2023/12/03 13:21:04;;;;;;;21.10;9.70;;;;;;;-0.95;100.00;100875.23;211583;1295;142250;-77
2023/12/03 13:27:00;;;;;;;19.60;9.30;;;;;;;-0.99;100.00;100871.23;212026;1295;141616;-77
2023/12/03 13:32:51;;;;;;;23.90;10.70;;;;;;;-1.01;100.00;100869.25;212014;1291;139825;-77
2023/12/03 13:38:52;;;;;;;21.60;10.00;;;;;;;-0.99;100.00;100863.35;211480;1290;141118;-77
2023/12/03 13:45:03;;;;;;;;;;;;;;;;;;;;;
2023/12/03 13:50:55;;;;;;;26.40;11.20;;;;;;;-0.96;100.00;100875.30;211293;1290;140814;-77
2023/12/03 13:56:48;;;;;;;;;;;;;;;;;;;;;
2023/12/03 14:02:50;;;;;;;22.10;10.70;;;;;;;-0.95;100.00;100880.85;211580;1291;139622;-78
2023/12/03 14:08:51;;;;;;;20.70;10.30;;;;;;;-0.98;100.00;100879.59;211187;1291;141825;-76
2023/12/03 14:14:53;;;;;;;22.30;10.50;;;;;;;-1.02;100.00;100886.02;211849;1297;140292;-77
2023/12/03 14:20:55;;;;;;;22.30;10.90;;;;;;;-1.05;100.00;100893.65;211779;1295;141070;-77
2023/12/03 14:26:41;;;;;;;;;;;;;;;;;;;;;
2023/12/03 14:32:23;;;;;;;;;;;;;;;-1.13;100.00;100899.71;211945;1291;140183;-77
2023/12/03 14:38:24;;;;;;;19.70;9.20;;;;;;;-1.18;100.00;100907.33;211455;1295;126570;-77
2023/12/03 14:44:28;;;;;;;21.60;9.50;;;;;;;-1.22;100.00;100912.89;211753;1291;140272;-76
2023/12/03 14:50:29;;;;;;;21.90;9.40;;;;;;;-1.25;100.00;100918.33;211381;1296;140895;-77
2023/12/03 14:56:31;;;;;;;21.80;9.10;;;;;;;-1.28;100.00;100921.48;212123;1292;141650;-76
2023/12/03 15:02:32;;;;;;;27.10;10.80;;;;;;;-1.28;100.00;100928.61;211816;1290;139811;-76
2023/12/03 15:08:33;;;;;;;20.90;10.20;;;;;;;-1.29;100.00;100931.09;211767;1295;141466;-77
2023/12/03 15:14:31;;;;;;;;;;;;;;;;;;;;;
2023/12/03 15:20:23;;;;;;;19.60;9.40;;;;;;;-1.34;100.00;100943.58;211265;1297;140793;-77
2023/12/03 15:26:25;;;;;;;25.50;11.40;;;;;;;-1.37;100.00;100954.90;211137;1296;141402;-78
2023/12/03 15:32:29;;;;;;;25.00;10.80;;;;;;;-1.38;100.00;100958.20;211817;1290;140206;-77
2023/12/03 15:38:16;;;;;;;20.90;9.80;;;;;;;-1.39;100.00;100955.95;211321;1291;141291;-77
2023/12/03 15:44:10;;;;;;;;;;;;;;;;;;;;;
2023/12/03 15:50:19;;;;;;;22.00;10.30;;;;;;;-1.44;100.00;100960.84;214781;1290;141140;-78
2023/12/03 15:56:31;;;;;;;;;;;;;;;;;;;;;
2023/12/03 16:02:11;;;;;;;;;;;;;;;;;;;;;
2023/12/03 16:08:13;;;;;;;25.00;11.40;;;;;;;-1.47;100.00;100964.61;211727;1290;141068;-75
2023/12/03 16:14:03;;;;;;;24.50;11.50;;;;;;;-1.49;100.00;100968.88;212237;1292;138634;-75
2023/12/03 16:19:53;;;;;;;;;;;;;;;;;;;;;
2023/12/03 16:25:49;;;;;;;21.00;9.90;;;;;;;-1.50;100.00;100981.64;212474;1297;139688;-79
2023/12/03 16:31:51;;;;;;;25.90;12.30;;;;;;;-1.51;100.00;100987.70;212689;1296;243492;-77
2023/12/03 16:37:54;;;;;;;27.20;12.20;;;;;;;-1.48;100.00;100993.61;214687;1290;141786;-77
2023/12/03 16:43:59;;;;;;;29.00;12.00;;;;;;;-1.47;100.00;100998.95;212144;1295;139745;-76
2023/12/03 16:49:52;;;;;;;;;;;;;;;;;;;;;
2023/12/03 16:56:00;;;;;;;27.20;12.70;;;;;;;-1.46;100.00;101006.59;212004;1291;139526;-77
2023/12/03 17:02:02;;;;;;;27.70;13.20;;;;;;;-1.48;100.00;101014.55;212385;1293;140075;-77
2023/12/03 17:07:56;;;;;;;31.70;13.80;;;;;;;-1.48;100.00;101020.20;212688;1291;141741;-77
2023/12/03 17:13:57;;;;;;;30.60;14.10;;;;;;;-1.49;100.00;101030.48;212253;1295;140029;-77
2023/12/03 17:19:58;;;;;;;31.30;14.20;;;;;;;-1.50;100.00;101036.05;211939;1297;140999;-77
2023/12/03 17:25:59;;;;;;;32.50;14.60;;;;;;;-1.50;100.00;101042.31;212352;1295;139857;-77
2023/12/03 17:31:45;;;;;;;;;;;;;;;;;;;;;
2023/12/03 17:37:48;;;;;;;34.30;14.40;;;;;;;-1.47;100.00;101053.14;213725;1290;141544;-77
2023/12/03 17:43:51;;;;;;;36.80;16.20;;;;;;;-1.46;100.00;101055.62;212109;1290;139540;-77
2023/12/03 17:49:53;;;;;;;31.90;15.10;;;;;;;-1.43;100.00;101052.34;212107;1291;141159;-78
2023/12/03 18:01:56;;;;;;;23.00;11.60;;;;;;;-1.45;100.00;101056.58;212837;1296;139558;-77
2023/12/03 18:08:07;;;;;;;;;;;;;;;;;;;;;
2023/12/03 18:13:56;;;;;;;;;;;;;;;;;;;;;
2023/12/03 18:26:00;;;;;;;25.60;12.10;;;;;;;-1.46;100.00;101077.58;212304;1294;139539;-78
2023/12/03 18:32:00;;;;;;;24.60;11.60;;;;;;;-1.50;100.00;101078.91;212210;1295;139735;-78
2023/12/03 18:38:01;;;;;;;25.00;11.60;;;;;;;-1.55;100.00;101079.33;212422;1292;140844;-78
2023/12/03 18:43:57;;;;;;;28.10;12.90;;;;;;;-1.59;100.00;101085.77;212170;1296;139506;-78
2023/12/03 18:50:05;;;;;;;27.40;13.00;;;;;;;-1.63;100.00;101089.05;211623;1297;140925;-78
2023/12/03 18:56:01;;;;;;;22.80;11.40;;;;;;;-1.68;100.00;101090.92;212310;1293;139614;-77
2023/12/03 19:02:01;;;;;;;24.90;12.30;;;;;;;-1.73;100.00;101095.05;212278;1290;139579;-78
2023/12/03 19:13:42;;;;;;;24.70;11.50;;;;;;;-1.83;100.00;101098.62;212501;1290;140218;-77
2023/12/03 19:19:44;;;;;;;43.30;17.70;;;;;;;-1.85;100.00;101099.98;212467;1293;140822;-77
2023/12/03 19:25:45;;;;;;;34.20;16.40;;;;;;;-1.87;100.00;101110.24;212640;1291;139739;-77
2023/12/03 19:31:48;;;;;;;32.20;14.30;;;;;;;-1.88;100.00;101113.53;214666;1290;243413;-77
2023/12/03 19:37:31;;;;;;;27.30;13.70;;;;;;;-1.89;100.00;101116.23;212116;1305;141041;-76
2023/12/03 19:43:32;;;;;;;28.80;12.90;;;;;;;-1.93;100.00;101112.21;212448;1293;139551;-76
2023/12/03 19:49:31;;;;;;;28.70;14.00;;;;;;;-1.93;100.00;101118.64;211942;1291;140690;-76
2023/12/03 19:55:33;;;;;;;28.50;13.70;;;;;;;-1.93;100.00;101128.88;212427;1293;139548;-77
2023/12/03 20:01:33;;;;;;;31.40;14.70;;;;;;;-1.95;100.00;101130.90;212513;1293;139959;-77
2023/12/03 20:13:34;;;;;;;;;;;;;;;;;;;;;
2023/12/03 20:19:35;;;;;;;28.80;13.60;;;;;;;-2.05;100.00;101130.23;215591;1289;140632;-76
2023/12/03 20:31:37;;;;;;;;;;;;;;;;;;;;;
2023/12/03 20:43:30;;;;;;;;;;;;;;;;;;;;;
2023/12/03 20:49:25;;;;;;;28.10;13.10;;;;;;;-2.16;100.00;101130.66;212119;1293;140693;-77
2023/12/03 21:01:28;;;;;;;24.90;12.80;;;;;;;-2.23;100.00;101131.88;217615;1290;392805;-77
2023/12/03 21:07:29;;;;;;;24.20;10.90;;;;;;;-2.26;100.00;101139.55;211789;1293;141282;-78
2023/12/03 21:19:33;;;;;;;26.20;11.50;;;;;;;-2.30;100.00;101146.83;212173;1291;142669;-77
2023/12/03 21:25:34;;;;;;;25.60;11.50;;;;;;;-2.34;100.00;101153.87;212280;1292;139678;-77
2023/12/03 21:31:18;;;;;;;27.70;11.40;;;;;;;-2.37;100.00;101147.89;212893;1294;139736;-77
2023/12/03 21:37:16;;;;;;;;;;;;;;;;;;;;;
2023/12/03 21:43:01;;;;;;;24.00;11.40;;;;;;;-2.40;100.00;101140.57;212495;1294;140050;-78
2023/12/03 21:49:03;;;;;;;23.20;10.60;;;;;;;-2.42;100.00;101138.24;208669;1294;5344897;-77
2023/12/03 21:55:04;;;;;;;24.00;10.20;;;;;;;-2.46;100.00;101135.83;212535;1291;140081;-77
2023/12/03 22:00:57;;;;;;;;;;;;;;;;;;;;;
2023/12/03 22:06:59;;;;;;;26.60;11.70;;;;;;;-2.44;100.00;101147.54;212726;1291;141298;-78
2023/12/03 22:12:58;;;;;;;;;;;;;;;;;;;;;
2023/12/03 22:19:01;;;;;;;26.20;12.30;;;;;;;-2.44;100.00;101140.05;212215;1293;141866;-78
2023/12/03 22:25:02;;;;;;;30.90;13.90;;;;;;;-2.41;100.00;101141.31;212722;1292;139682;-77
2023/12/03 22:31:03;;;;;;;31.90;14.60;;;;;;;-2.41;100.00;101152.70;211945;1293;140874;-78
2023/12/03 22:37:05;;;;;;;31.10;14.10;;;;;;;-2.42;100.00;101152.86;212607;1301;141115;-78
2023/12/03 22:43:06;;;;;;;29.50;14.10;;;;;;;-2.45;100.00;101152.27;213323;1294;139724;-78
2023/12/03 22:49:00;;;;;;;26.90;12.10;;;;;;;-2.49;100.00;101152.13;211997;1290;140642;-79
2023/12/03 22:55:01;;;;;;;33.20;13.40;;;;;;;-2.50;100.00;101157.52;212775;1294;140206;-77
2023/12/03 23:01:02;;;;;;;25.90;13.00;;;;;;;-2.48;100.00;101138.00;217518;1290;141097;-79
2023/12/03 23:06:53;;;;;;;28.40;12.60;;;;;;;-2.48;100.00;101139.24;216132;1292;141056;-78
2023/12/03 23:18:31;;;;;;;27.10;12.20;;;;;;;-2.48;100.00;101139.94;213916;1294;141330;-78
2023/12/03 23:24:30;;;;;;;32.10;14.30;;;;;;;-2.48;100.00;101138.59;212594;1295;139610;-78
2023/12/03 23:30:32;;;;;;;32.50;14.30;;;;;;;-2.50;100.00;101141.61;211862;1293;141125;-78
2023/12/03 23:42:34;;;;;;;29.10;15.30;;;;;;;-2.51;100.00;101141.19;212381;1304;139659;-78
2023/12/03 23:48:16;;;;;;;;;;;;;;;;;;;;;
2023/12/03 23:54:18;;;;;;;33.80;15.40;;;;;;;-2.57;100.00;101140.51;212303;1291;139737;-78
